sensor_id;sensor_type;location;lat;lon;timestamp;P1;durP1;ratioP1;P2;durP2;ratioP2
31402;SDS011;18039;52.188;21.024;2022-09-11T00:01:11;17.95;;;11.10;;
31402;SDS011;18039;52.188;21.024;2022-09-11T00:03:39;19.27;;;11.23;;
31402;SDS011;18039;52.188;21.024;2022-09-11T00:06:09;25.50;;;12.27;;
31402;SDS011;18039;52.188;21.024;2022-09-11T00:08:38;23.33;;;12.82;;
31402;SDS011;18039;52.188;21.024;2022-09-11T00:11:14;26.73;;;13.82;;
31402;SDS011;18039;52.188;21.024;2022-09-11T00:13:44;23.38;;;12.27;;
31402;SDS011;18039;52.188;21.024;2022-09-11T00:18:55;20.52;;;12.02;;
31402;SDS011;18039;52.188;21.024;2022-09-11T00:21:25;21.38;;;12.20;;
31402;SDS011;18039;52.188;21.024;2022-09-11T00:23:53;23.85;;;13.13;;
31402;SDS011;18039;52.188;21.024;2022-09-11T00:26:20;23.45;;;12.60;;
31402;SDS011;18039;52.188;21.024;2022-09-11T00:28:48;23.13;;;12.60;;
31402;SDS011;18039;52.188;21.024;2022-09-11T00:31:17;24.33;;;14.07;;
31402;SDS011;18039;52.188;21.024;2022-09-11T00:33:46;25.48;;;13.73;;
31402;SDS011;18039;52.188;21.024;2022-09-11T00:36:15;24.17;;;13.45;;
31402;SDS011;18039;52.188;21.024;2022-09-11T00:38:44;22.13;;;13.18;;
31402;SDS011;18039;52.188;21.024;2022-09-11T00:41:16;25.63;;;13.25;;
31402;SDS011;18039;52.188;21.024;2022-09-11T00:43:59;22.42;;;12.20;;
31402;SDS011;18039;52.188;21.024;2022-09-11T00:55:10;19.08;;;11.48;;
31402;SDS011;18039;52.188;21.024;2022-09-11T00:57:42;14.70;;;9.18;;
31402;SDS011;18039;52.188;21.024;2022-09-11T01:02:40;16.85;;;9.13;;
31402;SDS011;18039;52.188;21.024;2022-09-11T01:05:08;17.63;;;9.88;;
31402;SDS011;18039;52.188;21.024;2022-09-11T01:07:37;16.10;;;10.05;;
31402;SDS011;18039;52.188;21.024;2022-09-11T01:10:06;21.25;;;9.80;;
31402;SDS011;18039;52.188;21.024;2022-09-11T01:12:43;17.30;;;9.35;;
31402;SDS011;18039;52.188;21.024;2022-09-11T01:15:20;19.17;;;10.20;;
31402;SDS011;18039;52.188;21.024;2022-09-11T01:23:17;20.45;;;10.27;;
31402;SDS011;18039;52.188;21.024;2022-09-11T01:28:35;17.23;;;10.07;;
31402;SDS011;18039;52.188;21.024;2022-09-11T01:31:09;22.17;;;11.82;;
31402;SDS011;18039;52.188;21.024;2022-09-11T01:33:42;20.58;;;12.88;;
31402;SDS011;18039;52.188;21.024;2022-09-11T01:36:21;23.02;;;13.65;;
31402;SDS011;18039;52.188;21.024;2022-09-11T01:38:57;23.60;;;13.63;;
31402;SDS011;18039;52.188;21.024;2022-09-11T01:41:31;22.90;;;13.68;;
31402;SDS011;18039;52.188;21.024;2022-09-11T01:44:13;20.25;;;12.45;;
31402;SDS011;18039;52.188;21.024;2022-09-11T01:46:45;25.30;;;14.38;;
31402;SDS011;18039;52.188;21.024;2022-09-11T01:49:39;25.00;;;13.93;;
31402;SDS011;18039;52.188;21.024;2022-09-11T01:52:19;21.65;;;14.07;;
31402;SDS011;18039;52.188;21.024;2022-09-11T01:55:02;24.63;;;14.02;;
31402;SDS011;18039;52.188;21.024;2022-09-11T01:57:41;27.10;;;15.25;;
31402;SDS011;18039;52.188;21.024;2022-09-11T02:00:14;27.70;;;15.18;;
31402;SDS011;18039;52.188;21.024;2022-09-11T02:02:46;25.08;;;15.02;;
31402;SDS011;18039;52.188;21.024;2022-09-11T02:05:22;25.25;;;14.88;;
31402;SDS011;18039;52.188;21.024;2022-09-11T02:07:56;27.52;;;15.52;;
31402;SDS011;18039;52.188;21.024;2022-09-11T02:10:49;32.67;;;17.48;;
31402;SDS011;18039;52.188;21.024;2022-09-11T02:13:27;31.05;;;17.33;;
31402;SDS011;18039;52.188;21.024;2022-09-11T02:16:04;30.90;;;17.38;;
31402;SDS011;18039;52.188;21.024;2022-09-11T02:18:40;30.50;;;17.02;;
31402;SDS011;18039;52.188;21.024;2022-09-11T02:21:15;29.13;;;18.20;;
31402;SDS011;18039;52.188;21.024;2022-09-11T02:23:41;32.67;;;18.08;;
31402;SDS011;18039;52.188;21.024;2022-09-11T02:26:09;29.80;;;17.25;;
31402;SDS011;18039;52.188;21.024;2022-09-11T02:28:38;32.13;;;17.05;;
31402;SDS011;18039;52.188;21.024;2022-09-11T02:31:06;31.55;;;17.90;;
31402;SDS011;18039;52.188;21.024;2022-09-11T02:33:34;29.90;;;18.67;;
31402;SDS011;18039;52.188;21.024;2022-09-11T02:36:07;29.27;;;17.45;;
31402;SDS011;18039;52.188;21.024;2022-09-11T02:38:44;31.95;;;18.02;;
31402;SDS011;18039;52.188;21.024;2022-09-11T02:41:22;32.83;;;17.85;;
31402;SDS011;18039;52.188;21.024;2022-09-11T02:46:55;32.78;;;18.25;;
31402;SDS011;18039;52.188;21.024;2022-09-11T02:49:38;32.13;;;17.83;;
31402;SDS011;18039;52.188;21.024;2022-09-11T02:52:32;32.08;;;17.45;;
31402;SDS011;18039;52.188;21.024;2022-09-11T02:55:23;30.63;;;17.17;;
31402;SDS011;18039;52.188;21.024;2022-09-11T02:58:13;31.13;;;17.40;;
31402;SDS011;18039;52.188;21.024;2022-09-11T03:00:47;31.75;;;18.52;;
31402;SDS011;18039;52.188;21.024;2022-09-11T03:03:14;38.95;;;18.67;;
31402;SDS011;18039;52.188;21.024;2022-09-11T03:05:41;36.05;;;19.35;;
31402;SDS011;18039;52.188;21.024;2022-09-11T03:08:08;33.03;;;17.80;;
31402;SDS011;18039;52.188;21.024;2022-09-11T03:10:37;32.28;;;17.50;;
31402;SDS011;18039;52.188;21.024;2022-09-11T03:13:08;33.33;;;18.38;;
31402;SDS011;18039;52.188;21.024;2022-09-11T03:15:34;30.80;;;17.83;;
31402;SDS011;18039;52.188;21.024;2022-09-11T03:18:02;31.15;;;16.63;;
31402;SDS011;18039;52.188;21.024;2022-09-11T03:20:30;27.67;;;15.98;;
31402;SDS011;18039;52.188;21.024;2022-09-11T03:22:57;30.35;;;15.85;;
31402;SDS011;18039;52.188;21.024;2022-09-11T03:25:27;27.35;;;14.35;;
31402;SDS011;18039;52.188;21.024;2022-09-11T03:27:55;27.80;;;14.18;;
31402;SDS011;18039;52.188;21.024;2022-09-11T03:30:22;25.08;;;14.63;;
31402;SDS011;18039;52.188;21.024;2022-09-11T03:32:49;24.45;;;13.43;;
31402;SDS011;18039;52.188;21.024;2022-09-11T03:35:17;25.27;;;14.10;;
31402;SDS011;18039;52.188;21.024;2022-09-11T03:37:44;24.25;;;13.10;;
31402;SDS011;18039;52.188;21.024;2022-09-11T03:40:12;25.52;;;14.15;;
31402;SDS011;18039;52.188;21.024;2022-09-11T03:42:40;21.25;;;12.73;;
31402;SDS011;18039;52.188;21.024;2022-09-11T03:45:07;24.15;;;12.93;;
31402;SDS011;18039;52.188;21.024;2022-09-11T03:47:35;26.95;;;14.82;;
31402;SDS011;18039;52.188;21.024;2022-09-11T03:50:03;26.65;;;13.75;;
31402;SDS011;18039;52.188;21.024;2022-09-11T03:52:31;23.23;;;14.00;;
31402;SDS011;18039;52.188;21.024;2022-09-11T03:54:58;28.77;;;14.93;;
31402;SDS011;18039;52.188;21.024;2022-09-11T03:57:26;29.75;;;14.73;;
31402;SDS011;18039;52.188;21.024;2022-09-11T03:59:53;24.95;;;14.30;;
31402;SDS011;18039;52.188;21.024;2022-09-11T04:02:22;24.85;;;14.52;;
31402;SDS011;18039;52.188;21.024;2022-09-11T04:04:51;28.80;;;14.63;;
31402;SDS011;18039;52.188;21.024;2022-09-11T04:07:19;23.35;;;13.32;;
31402;SDS011;18039;52.188;21.024;2022-09-11T04:09:47;22.77;;;13.40;;
31402;SDS011;18039;52.188;21.024;2022-09-11T04:12:14;23.80;;;14.05;;
31402;SDS011;18039;52.188;21.024;2022-09-11T04:14:45;22.48;;;14.00;;
31402;SDS011;18039;52.188;21.024;2022-09-11T04:17:12;24.30;;;12.77;;
31402;SDS011;18039;52.188;21.024;2022-09-11T04:19:39;23.15;;;12.50;;
31402;SDS011;18039;52.188;21.024;2022-09-11T04:22:06;23.13;;;13.10;;
31402;SDS011;18039;52.188;21.024;2022-09-11T04:24:37;21.58;;;13.57;;
31402;SDS011;18039;52.188;21.024;2022-09-11T04:27:05;23.42;;;13.30;;
31402;SDS011;18039;52.188;21.024;2022-09-11T04:29:32;22.20;;;12.15;;
31402;SDS011;18039;52.188;21.024;2022-09-11T04:32:00;22.30;;;13.45;;
31402;SDS011;18039;52.188;21.024;2022-09-11T04:34:31;20.42;;;11.98;;
31402;SDS011;18039;52.188;21.024;2022-09-11T04:36:58;20.33;;;13.10;;
31402;SDS011;18039;52.188;21.024;2022-09-11T04:39:28;24.33;;;12.80;;
31402;SDS011;18039;52.188;21.024;2022-09-11T04:41:56;23.40;;;12.95;;
31402;SDS011;18039;52.188;21.024;2022-09-11T04:44:23;24.77;;;14.15;;
31402;SDS011;18039;52.188;21.024;2022-09-11T04:46:54;27.98;;;13.73;;
31402;SDS011;18039;52.188;21.024;2022-09-11T04:49:23;30.73;;;15.07;;
31402;SDS011;18039;52.188;21.024;2022-09-11T04:51:50;22.88;;;13.70;;
31402;SDS011;18039;52.188;21.024;2022-09-11T04:54:19;21.75;;;13.90;;
31402;SDS011;18039;52.188;21.024;2022-09-11T04:56:47;22.48;;;12.88;;
31402;SDS011;18039;52.188;21.024;2022-09-11T04:59:17;22.08;;;12.95;;
31402;SDS011;18039;52.188;21.024;2022-09-11T05:02:02;24.05;;;13.75;;
31402;SDS011;18039;52.188;21.024;2022-09-11T05:04:30;16.35;;;10.43;;
31402;SDS011;18039;52.188;21.024;2022-09-11T05:06:59;21.73;;;11.68;;
31402;SDS011;18039;52.188;21.024;2022-09-11T05:09:28;20.33;;;10.77;;
31402;SDS011;18039;52.188;21.024;2022-09-11T05:11:57;17.88;;;10.68;;
31402;SDS011;18039;52.188;21.024;2022-09-11T05:14:29;19.23;;;11.13;;
31402;SDS011;18039;52.188;21.024;2022-09-11T05:17:00;18.65;;;11.38;;
31402;SDS011;18039;52.188;21.024;2022-09-11T05:19:28;17.60;;;10.73;;
31402;SDS011;18039;52.188;21.024;2022-09-11T05:21:56;18.88;;;10.48;;
31402;SDS011;18039;52.188;21.024;2022-09-11T05:24:24;15.82;;;9.73;;
31402;SDS011;18039;52.188;21.024;2022-09-11T05:26:51;13.52;;;8.80;;
31402;SDS011;18039;52.188;21.024;2022-09-11T05:29:19;14.13;;;9.10;;
31402;SDS011;18039;52.188;21.024;2022-09-11T05:31:53;16.98;;;9.52;;
31402;SDS011;18039;52.188;21.024;2022-09-11T05:34:21;14.63;;;8.88;;
31402;SDS011;18039;52.188;21.024;2022-09-11T05:36:49;14.95;;;9.15;;
31402;SDS011;18039;52.188;21.024;2022-09-11T05:39:17;13.20;;;8.93;;
31402;SDS011;18039;52.188;21.024;2022-09-11T05:41:45;12.60;;;8.27;;
31402;SDS011;18039;52.188;21.024;2022-09-11T05:44:16;11.50;;;8.20;;
31402;SDS011;18039;52.188;21.024;2022-09-11T05:46:43;11.60;;;7.95;;
31402;SDS011;18039;52.188;21.024;2022-09-11T05:49:11;14.65;;;8.60;;
31402;SDS011;18039;52.188;21.024;2022-09-11T05:51:39;12.13;;;8.55;;
31402;SDS011;18039;52.188;21.024;2022-09-11T05:54:07;13.90;;;8.68;;
31402;SDS011;18039;52.188;21.024;2022-09-11T05:56:34;14.82;;;9.05;;
31402;SDS011;18039;52.188;21.024;2022-09-11T05:59:11;16.60;;;8.48;;
31402;SDS011;18039;52.188;21.024;2022-09-11T06:01:44;13.15;;;8.45;;
31402;SDS011;18039;52.188;21.024;2022-09-11T06:04:20;12.65;;;8.30;;
31402;SDS011;18039;52.188;21.024;2022-09-11T06:06:50;15.05;;;8.85;;
31402;SDS011;18039;52.188;21.024;2022-09-11T06:09:19;14.63;;;8.75;;
31402;SDS011;18039;52.188;21.024;2022-09-11T06:11:46;15.13;;;8.65;;
31402;SDS011;18039;52.188;21.024;2022-09-11T06:14:13;12.02;;;8.48;;
31402;SDS011;18039;52.188;21.024;2022-09-11T06:16:43;16.77;;;9.77;;
31402;SDS011;18039;52.188;21.024;2022-09-11T06:19:13;16.17;;;8.93;;
31402;SDS011;18039;52.188;21.024;2022-09-11T06:21:40;14.25;;;8.52;;
31402;SDS011;18039;52.188;21.024;2022-09-11T06:26:49;13.52;;;8.63;;
31402;SDS011;18039;52.188;21.024;2022-09-11T06:29:16;14.73;;;9.40;;
31402;SDS011;18039;52.188;21.024;2022-09-11T06:31:47;16.98;;;9.80;;
31402;SDS011;18039;52.188;21.024;2022-09-11T06:34:21;16.50;;;9.15;;
31402;SDS011;18039;52.188;21.024;2022-09-11T06:36:49;15.45;;;9.25;;
31402;SDS011;18039;52.188;21.024;2022-09-11T06:39:18;15.77;;;9.40;;
31402;SDS011;18039;52.188;21.024;2022-09-11T06:41:46;12.90;;;9.10;;
31402;SDS011;18039;52.188;21.024;2022-09-11T06:44:14;14.65;;;9.27;;
31402;SDS011;18039;52.188;21.024;2022-09-11T06:46:41;14.18;;;9.50;;
31402;SDS011;18039;52.188;21.024;2022-09-11T06:49:10;18.25;;;10.40;;
31402;SDS011;18039;52.188;21.024;2022-09-11T06:51:58;21.48;;;11.10;;
31402;SDS011;18039;52.188;21.024;2022-09-11T06:54:25;18.88;;;10.30;;
31402;SDS011;18039;52.188;21.024;2022-09-11T06:56:53;14.98;;;9.13;;
31402;SDS011;18039;52.188;21.024;2022-09-11T06:59:20;14.65;;;9.23;;
31402;SDS011;18039;52.188;21.024;2022-09-11T07:01:49;15.07;;;9.48;;
31402;SDS011;18039;52.188;21.024;2022-09-11T07:04:17;15.60;;;8.90;;
31402;SDS011;18039;52.188;21.024;2022-09-11T07:06:47;14.55;;;10.45;;
31402;SDS011;18039;52.188;21.024;2022-09-11T07:09:15;16.63;;;10.13;;
31402;SDS011;18039;52.188;21.024;2022-09-11T07:11:48;17.27;;;10.27;;
31402;SDS011;18039;52.188;21.024;2022-09-11T07:14:17;20.42;;;10.05;;
31402;SDS011;18039;52.188;21.024;2022-09-11T07:16:49;16.92;;;10.23;;
31402;SDS011;18039;52.188;21.024;2022-09-11T07:19:18;17.73;;;9.57;;
31402;SDS011;18039;52.188;21.024;2022-09-11T07:21:45;15.32;;;9.10;;
31402;SDS011;18039;52.188;21.024;2022-09-11T07:24:13;15.30;;;10.38;;
31402;SDS011;18039;52.188;21.024;2022-09-11T07:26:42;14.40;;;9.30;;
31402;SDS011;18039;52.188;21.024;2022-09-11T07:29:15;15.70;;;10.80;;
31402;SDS011;18039;52.188;21.024;2022-09-11T07:31:44;18.48;;;10.60;;
31402;SDS011;18039;52.188;21.024;2022-09-11T07:34:13;17.85;;;10.30;;
31402;SDS011;18039;52.188;21.024;2022-09-11T07:36:41;14.52;;;8.90;;
31402;SDS011;18039;52.188;21.024;2022-09-11T07:39:09;14.40;;;10.00;;
31402;SDS011;18039;52.188;21.024;2022-09-11T07:41:45;18.00;;;10.15;;
31402;SDS011;18039;52.188;21.024;2022-09-11T07:44:16;19.40;;;11.52;;
31402;SDS011;18039;52.188;21.024;2022-09-11T07:46:44;21.98;;;9.60;;
31402;SDS011;18039;52.188;21.024;2022-09-11T07:49:11;15.55;;;9.32;;
31402;SDS011;18039;52.188;21.024;2022-09-11T07:51:40;20.60;;;9.95;;
31402;SDS011;18039;52.188;21.024;2022-09-11T07:54:10;20.38;;;9.55;;
31402;SDS011;18039;52.188;21.024;2022-09-11T07:56:40;14.88;;;9.25;;
31402;SDS011;18039;52.188;21.024;2022-09-11T07:59:09;21.13;;;10.55;;
31402;SDS011;18039;52.188;21.024;2022-09-11T08:01:41;15.93;;;10.05;;
31402;SDS011;18039;52.188;21.024;2022-09-11T08:04:10;15.95;;;10.35;;
31402;SDS011;18039;52.188;21.024;2022-09-11T08:06:39;17.88;;;10.00;;
31402;SDS011;18039;52.188;21.024;2022-09-11T08:09:13;18.98;;;10.07;;
31402;SDS011;18039;52.188;21.024;2022-09-11T08:11:47;16.70;;;8.82;;
31402;SDS011;18039;52.188;21.024;2022-09-11T08:14:16;17.25;;;9.43;;
31402;SDS011;18039;52.188;21.024;2022-09-11T08:16:46;17.52;;;9.95;;
31402;SDS011;18039;52.188;21.024;2022-09-11T08:19:19;18.00;;;9.80;;
31402;SDS011;18039;52.188;21.024;2022-09-11T08:21:53;17.00;;;9.85;;
31402;SDS011;18039;52.188;21.024;2022-09-11T08:24:21;20.23;;;10.65;;
31402;SDS011;18039;52.188;21.024;2022-09-11T08:26:54;20.23;;;10.90;;
31402;SDS011;18039;52.188;21.024;2022-09-11T08:29:24;17.83;;;9.77;;
31402;SDS011;18039;52.188;21.024;2022-09-11T08:31:52;16.33;;;9.85;;
31402;SDS011;18039;52.188;21.024;2022-09-11T08:34:20;20.67;;;10.52;;
31402;SDS011;18039;52.188;21.024;2022-09-11T08:36:48;17.42;;;11.20;;
31402;SDS011;18039;52.188;21.024;2022-09-11T08:39:18;17.67;;;10.88;;
31402;SDS011;18039;52.188;21.024;2022-09-11T08:41:54;22.70;;;10.77;;
31402;SDS011;18039;52.188;21.024;2022-09-11T08:44:26;19.45;;;10.40;;
31402;SDS011;18039;52.188;21.024;2022-09-11T08:47:17;22.25;;;11.05;;
31402;SDS011;18039;52.188;21.024;2022-09-11T08:49:54;19.15;;;9.95;;
31402;SDS011;18039;52.188;21.024;2022-09-11T08:52:26;24.05;;;11.05;;
31402;SDS011;18039;52.188;21.024;2022-09-11T08:54:55;18.75;;;11.30;;
31402;SDS011;18039;52.188;21.024;2022-09-11T08:57:33;21.00;;;10.80;;
31402;SDS011;18039;52.188;21.024;2022-09-11T09:02:56;17.52;;;8.82;;
31402;SDS011;18039;52.188;21.024;2022-09-11T09:05:49;16.50;;;10.27;;
31402;SDS011;18039;52.188;21.024;2022-09-11T09:11:35;17.33;;;9.93;;
31402;SDS011;18039;52.188;21.024;2022-09-11T09:14:16;16.10;;;9.68;;
31402;SDS011;18039;52.188;21.024;2022-09-11T09:19:32;19.08;;;8.18;;
31402;SDS011;18039;52.188;21.024;2022-09-11T09:22:12;13.30;;;7.30;;
31402;SDS011;18039;52.188;21.024;2022-09-11T09:25:03;14.40;;;7.40;;
31402;SDS011;18039;52.188;21.024;2022-09-11T09:27:37;12.93;;;7.80;;
31402;SDS011;18039;52.188;21.024;2022-09-11T09:30:18;16.02;;;8.88;;
31402;SDS011;18039;52.188;21.024;2022-09-11T09:32:54;16.10;;;8.25;;
31402;SDS011;18039;52.188;21.024;2022-09-11T09:38:11;12.50;;;7.10;;
31402;SDS011;18039;52.188;21.024;2022-09-11T09:40:53;10.35;;;6.40;;
31402;SDS011;18039;52.188;21.024;2022-09-11T09:49:11;8.48;;;5.32;;
31402;SDS011;18039;52.188;21.024;2022-09-11T09:51:43;9.52;;;5.88;;
31402;SDS011;18039;52.188;21.024;2022-09-11T09:54:12;10.38;;;6.57;;
31402;SDS011;18039;52.188;21.024;2022-09-11T09:56:45;14.68;;;6.47;;
31402;SDS011;18039;52.188;21.024;2022-09-11T09:59:52;9.48;;;6.00;;
31402;SDS011;18039;52.188;21.024;2022-09-11T10:02:56;9.95;;;6.25;;
31402;SDS011;18039;52.188;21.024;2022-09-11T10:05:25;9.77;;;5.55;;
31402;SDS011;18039;52.188;21.024;2022-09-11T10:10:56;11.18;;;5.63;;
31402;SDS011;18039;52.188;21.024;2022-09-11T10:13:26;9.98;;;5.43;;
31402;SDS011;18039;52.188;21.024;2022-09-11T10:16:00;9.97;;;5.93;;
31402;SDS011;18039;52.188;21.024;2022-09-11T10:18:38;9.27;;;4.82;;
31402;SDS011;18039;52.188;21.024;2022-09-11T10:23:45;8.38;;;5.22;;
31402;SDS011;18039;52.188;21.024;2022-09-11T10:26:24;10.27;;;5.97;;
31402;SDS011;18039;52.188;21.024;2022-09-11T10:28:59;9.73;;;5.32;;
31402;SDS011;18039;52.188;21.024;2022-09-11T10:31:33;8.25;;;4.85;;
31402;SDS011;18039;52.188;21.024;2022-09-11T10:34:04;10.15;;;5.40;;
31402;SDS011;18039;52.188;21.024;2022-09-11T10:36:32;10.80;;;5.85;;
31402;SDS011;18039;52.188;21.024;2022-09-11T10:39:00;9.95;;;6.15;;
31402;SDS011;18039;52.188;21.024;2022-09-11T10:41:28;9.35;;;5.80;;
31402;SDS011;18039;52.188;21.024;2022-09-11T10:44:04;9.88;;;5.85;;
31402;SDS011;18039;52.188;21.024;2022-09-11T10:46:37;10.65;;;5.72;;
31402;SDS011;18039;52.188;21.024;2022-09-11T10:49:08;11.95;;;6.25;;
31402;SDS011;18039;52.188;21.024;2022-09-11T10:51:55;11.05;;;6.70;;
31402;SDS011;18039;52.188;21.024;2022-09-11T10:57:45;12.05;;;6.70;;
31402;SDS011;18039;52.188;21.024;2022-09-11T11:00:20;10.60;;;6.00;;
31402;SDS011;18039;52.188;21.024;2022-09-11T11:02:59;12.50;;;5.90;;
31402;SDS011;18039;52.188;21.024;2022-09-11T11:05:43;9.00;;;5.10;;
31402;SDS011;18039;52.188;21.024;2022-09-11T11:13:43;9.63;;;6.53;;
31402;SDS011;18039;52.188;21.024;2022-09-11T11:34:32;12.35;;;6.50;;
31402;SDS011;18039;52.188;21.024;2022-09-11T11:37:03;9.57;;;6.30;;
31402;SDS011;18039;52.188;21.024;2022-09-11T11:42:30;11.35;;;6.80;;
31402;SDS011;18039;52.188;21.024;2022-09-11T11:45:06;11.32;;;6.28;;
31402;SDS011;18039;52.188;21.024;2022-09-11T11:47:39;11.57;;;6.82;;
31402;SDS011;18039;52.188;21.024;2022-09-11T11:56:08;16.05;;;7.22;;
31402;SDS011;18039;52.188;21.024;2022-09-11T11:59:05;14.32;;;6.88;;
31402;SDS011;18039;52.188;21.024;2022-09-11T12:04:18;9.77;;;6.80;;
31402;SDS011;18039;52.188;21.024;2022-09-11T12:07:09;10.95;;;6.53;;
31402;SDS011;18039;52.188;21.024;2022-09-11T12:09:48;13.57;;;6.53;;
31402;SDS011;18039;52.188;21.024;2022-09-11T12:12:17;14.27;;;7.30;;
31402;SDS011;18039;52.188;21.024;2022-09-11T12:14:48;12.80;;;6.70;;
31402;SDS011;18039;52.188;21.024;2022-09-11T12:17:18;11.30;;;6.38;;
31402;SDS011;18039;52.188;21.024;2022-09-11T12:22:49;8.50;;;5.78;;
31402;SDS011;18039;52.188;21.024;2022-09-11T12:27:49;11.27;;;6.13;;
31402;SDS011;18039;52.188;21.024;2022-09-11T12:30:24;11.77;;;5.93;;
31402;SDS011;18039;52.188;21.024;2022-09-11T12:32:59;10.00;;;5.57;;
31402;SDS011;18039;52.188;21.024;2022-09-11T12:40:58;12.95;;;6.15;;
31402;SDS011;18039;52.188;21.024;2022-09-11T12:46:05;9.18;;;5.50;;
31402;SDS011;18039;52.188;21.024;2022-09-11T12:53:45;8.23;;;5.03;;
31402;SDS011;18039;52.188;21.024;2022-09-11T12:56:16;11.93;;;5.78;;
31402;SDS011;18039;52.188;21.024;2022-09-11T12:58:51;10.82;;;4.70;;
31402;SDS011;18039;52.188;21.024;2022-09-11T13:01:25;8.73;;;4.65;;
31402;SDS011;18039;52.188;21.024;2022-09-11T13:04:00;9.18;;;5.03;;
31402;SDS011;18039;52.188;21.024;2022-09-11T13:06:44;12.40;;;5.22;;
31402;SDS011;18039;52.188;21.024;2022-09-11T13:12:36;9.82;;;4.53;;
31402;SDS011;18039;52.188;21.024;2022-09-11T13:14:46;6.47;;;4.38;;
31402;SDS011;18039;52.188;21.024;2022-09-11T13:17:16;10.38;;;4.53;;
31402;SDS011;18039;52.188;21.024;2022-09-11T13:19:52;5.40;;;3.65;;
31402;SDS011;18039;52.188;21.024;2022-09-11T13:22:24;6.93;;;4.05;;
31402;SDS011;18039;52.188;21.024;2022-09-11T13:25:04;6.63;;;3.95;;
31402;SDS011;18039;52.188;21.024;2022-09-11T13:27:48;6.57;;;3.45;;
31402;SDS011;18039;52.188;21.024;2022-09-11T13:30:19;8.90;;;3.88;;
31402;SDS011;18039;52.188;21.024;2022-09-11T13:33:07;6.45;;;3.35;;
31402;SDS011;18039;52.188;21.024;2022-09-11T13:35:43;6.85;;;3.15;;
31402;SDS011;18039;52.188;21.024;2022-09-11T13:38:17;5.80;;;3.33;;
31402;SDS011;18039;52.188;21.024;2022-09-11T13:40:53;7.97;;;3.08;;
31402;SDS011;18039;52.188;21.024;2022-09-11T13:43:26;7.10;;;3.08;;
31402;SDS011;18039;52.188;21.024;2022-09-11T13:48:35;5.53;;;2.83;;
31402;SDS011;18039;52.188;21.024;2022-09-11T13:51:03;6.90;;;3.08;;
31402;SDS011;18039;52.188;21.024;2022-09-11T13:53:31;7.18;;;3.08;;
31402;SDS011;18039;52.188;21.024;2022-09-11T13:56:01;8.98;;;2.97;;
31402;SDS011;18039;52.188;21.024;2022-09-11T13:58:28;7.25;;;2.85;;
31402;SDS011;18039;52.188;21.024;2022-09-11T14:01:16;4.20;;;2.58;;
31402;SDS011;18039;52.188;21.024;2022-09-11T14:03:45;5.25;;;2.75;;
31402;SDS011;18039;52.188;21.024;2022-09-11T14:06:15;3.45;;;2.25;;
31402;SDS011;18039;52.188;21.024;2022-09-11T14:08:51;5.22;;;2.20;;
31402;SDS011;18039;52.188;21.024;2022-09-11T14:11:27;4.60;;;2.55;;
31402;SDS011;18039;52.188;21.024;2022-09-11T14:13:58;5.07;;;2.63;;
31402;SDS011;18039;52.188;21.024;2022-09-11T14:16:37;3.28;;;2.05;;
31402;SDS011;18039;52.188;21.024;2022-09-11T14:19:23;4.97;;;1.90;;
31402;SDS011;18039;52.188;21.024;2022-09-11T14:21:57;11.85;;;2.00;;
31402;SDS011;18039;52.188;21.024;2022-09-11T14:24:27;3.85;;;1.50;;
31402;SDS011;18039;52.188;21.024;2022-09-11T14:29:56;3.67;;;2.03;;
31402;SDS011;18039;52.188;21.024;2022-09-11T14:34:53;4.82;;;2.08;;
31402;SDS011;18039;52.188;21.024;2022-09-11T14:37:20;5.93;;;1.77;;
31402;SDS011;18039;52.188;21.024;2022-09-11T14:39:56;4.00;;;1.70;;
31402;SDS011;18039;52.188;21.024;2022-09-11T14:42:26;3.78;;;1.90;;
31402;SDS011;18039;52.188;21.024;2022-09-11T14:44:55;2.95;;;1.60;;
31402;SDS011;18039;52.188;21.024;2022-09-11T14:47:26;4.57;;;1.85;;
31402;SDS011;18039;52.188;21.024;2022-09-11T14:49:55;4.63;;;2.00;;
31402;SDS011;18039;52.188;21.024;2022-09-11T14:52:24;2.92;;;1.60;;
31402;SDS011;18039;52.188;21.024;2022-09-11T14:54:52;3.67;;;1.77;;
31402;SDS011;18039;52.188;21.024;2022-09-11T14:57:23;3.20;;;2.00;;
31402;SDS011;18039;52.188;21.024;2022-09-11T14:59:52;2.97;;;1.65;;
31402;SDS011;18039;52.188;21.024;2022-09-11T15:02:20;10.23;;;2.65;;
31402;SDS011;18039;52.188;21.024;2022-09-11T15:04:50;2.00;;;1.23;;
31402;SDS011;18039;52.188;21.024;2022-09-11T15:07:19;5.25;;;1.95;;
31402;SDS011;18039;52.188;21.024;2022-09-11T15:09:50;2.83;;;1.33;;
31402;SDS011;18039;52.188;21.024;2022-09-11T15:12:19;3.17;;;1.60;;
31402;SDS011;18039;52.188;21.024;2022-09-11T15:14:48;3.67;;;1.50;;
31402;SDS011;18039;52.188;21.024;2022-09-11T15:17:24;6.45;;;1.73;;
31402;SDS011;18039;52.188;21.024;2022-09-11T15:19:51;2.72;;;1.40;;
31402;SDS011;18039;52.188;21.024;2022-09-11T15:22:19;8.32;;;2.55;;
31402;SDS011;18039;52.188;21.024;2022-09-11T15:24:45;2.78;;;1.70;;
31402;SDS011;18039;52.188;21.024;2022-09-11T15:27:14;3.28;;;1.30;;
31402;SDS011;18039;52.188;21.024;2022-09-11T15:29:42;2.95;;;1.60;;
31402;SDS011;18039;52.188;21.024;2022-09-11T15:32:09;2.35;;;1.33;;
31402;SDS011;18039;52.188;21.024;2022-09-11T15:34:37;4.47;;;1.45;;
31402;SDS011;18039;52.188;21.024;2022-09-11T15:37:07;3.97;;;1.58;;
31402;SDS011;18039;52.188;21.024;2022-09-11T15:39:34;5.72;;;2.33;;
31402;SDS011;18039;52.188;21.024;2022-09-11T15:42:02;2.42;;;1.13;;
31402;SDS011;18039;52.188;21.024;2022-09-11T15:44:29;5.82;;;1.73;;
31402;SDS011;18039;52.188;21.024;2022-09-11T15:46:56;2.45;;;1.58;;
31402;SDS011;18039;52.188;21.024;2022-09-11T15:49:24;5.28;;;1.95;;
31402;SDS011;18039;52.188;21.024;2022-09-11T15:51:55;4.43;;;1.65;;
31402;SDS011;18039;52.188;21.024;2022-09-11T15:54:23;6.07;;;1.77;;
31402;SDS011;18039;52.188;21.024;2022-09-11T15:56:51;3.55;;;2.10;;
31402;SDS011;18039;52.188;21.024;2022-09-11T15:59:18;3.47;;;1.60;;
31402;SDS011;18039;52.188;21.024;2022-09-11T16:01:45;9.48;;;1.60;;
31402;SDS011;18039;52.188;21.024;2022-09-11T16:04:14;6.22;;;1.70;;
31402;SDS011;18039;52.188;21.024;2022-09-11T16:06:45;2.15;;;1.50;;
31402;SDS011;18039;52.188;21.024;2022-09-11T16:09:18;3.33;;;2.00;;
31402;SDS011;18039;52.188;21.024;2022-09-11T16:11:53;8.95;;;2.05;;
31402;SDS011;18039;52.188;21.024;2022-09-11T16:14:34;9.65;;;2.50;;
31402;SDS011;18039;52.188;21.024;2022-09-11T16:17:03;3.67;;;2.42;;
31402;SDS011;18039;52.188;21.024;2022-09-11T16:19:32;4.22;;;2.28;;
31402;SDS011;18039;52.188;21.024;2022-09-11T16:22:00;4.35;;;2.53;;
31402;SDS011;18039;52.188;21.024;2022-09-11T16:24:30;5.05;;;3.00;;
31402;SDS011;18039;52.188;21.024;2022-09-11T16:29:31;5.80;;;2.67;;
31402;SDS011;18039;52.188;21.024;2022-09-11T16:32:19;9.20;;;3.30;;
31402;SDS011;18039;52.188;21.024;2022-09-11T16:34:55;9.18;;;3.03;;
31402;SDS011;18039;52.188;21.024;2022-09-11T16:37:23;7.45;;;2.83;;
31402;SDS011;18039;52.188;21.024;2022-09-11T16:39:51;8.65;;;3.38;;
31402;SDS011;18039;52.188;21.024;2022-09-11T16:42:18;5.68;;;3.45;;
31402;SDS011;18039;52.188;21.024;2022-09-11T16:44:47;10.75;;;4.80;;
31402;SDS011;18039;52.188;21.024;2022-09-11T16:47:15;8.77;;;3.40;;
31402;SDS011;18039;52.188;21.024;2022-09-11T16:49:43;6.50;;;3.30;;